Time;durP1;ratioP1;P1;durP2;ratioP2;P2;SDS_P1;SDS_P2;PMS_P1;PMS_P2;Temp;Humidity;BMP_temperature;BMP_pressure;BME280_temperature;BME280_humidity;BME280_pressure;Samples;Min_cycle;Max_cycle;Signal;HPM_P1;HPM_P2
2024/01/28 00:02:14;;;;;;;23.30;10.10;;;;;;;2.01;100.00;98151.80;108218;1278;138443;-85
2024/01/28 00:05:23;;;;;;;;;;;;;;;;;;;;;
2024/01/28 00:08:43;;;;;;;19.30;9.50;;;;;;;2.02;100.00;98150.05;108198;1280;138819;-85
2024/01/28 00:11:53;;;;;;;18.90;9.60;;;;;;;2.02;100.00;98155.51;108253;1283;25287;-85
2024/01/28 00:14:52;;;;;;;;;;;;;;;;;;;;;
2024/01/28 00:18:11;;;;;;;21.10;10.80;;;;;;;2.03;100.00;98156.30;108395;1285;23632;-85
2024/01/28 00:21:02;;;;;;;;;;;;;;;;;;;;;
2024/01/28 00:23:51;;;;;;;25.10;9.60;;;;;;;2.02;100.00;98152.09;108314;1285;22590;-85
2024/01/28 00:27:13;;;;;;;20.50;9.40;;;;;;;2.01;100.00;98152.17;108057;1283;138494;-85
2024/01/28 00:30:06;;;;;;;19.60;8.90;;;;;;;2.02;100.00;98153.30;108293;1283;24399;-86
2024/01/28 00:33:12;;;;;;;;;;;;;;;2.02;100.00;98156.90;108276;1285;138587;-84
2024/01/28 00:36:39;;;;;;;21.10;10.70;;;;;;;2.05;100.00;98156.19;108430;1285;22638;-85
2024/01/28 00:40:02;;;;;;;21.50;9.40;;;;;;;2.05;100.00;98157.73;108293;1285;138293;-84
2024/01/28 00:47:08;;;;;;;21.40;9.50;;;;;;;2.07;100.00;98161.75;108095;1285;23218;-87
2024/01/28 00:50:35;;;;;;;20.90;10.10;;;;;;;2.04;100.00;98158.99;108193;1285;138295;-86
2024/01/28 00:54:02;;;;;;;21.20;10.30;;;;;;;2.06;100.00;98164.04;108418;1285;22621;-87
2024/01/28 00:57:23;;;;;;;21.00;10.50;;;;;;;2.09;100.00;98170.16;108299;1285;138360;-87
2024/01/28 01:00:43;;;;;;;;;;;;;;;;;;;;;
2024/01/28 01:04:20;;;;;;;22.70;9.70;;;;;;;2.08;100.00;98177.59;108327;1285;138428;-85
2024/01/28 01:07:29;;;;;;;21.20;11.20;;;;;;;2.03;100.00;98181.26;108377;1278;22537;-86
2024/01/28 01:10:58;;;;;;;19.50;10.40;;;;;;;2.01;100.00;98177.31;108293;1280;22570;-84
2024/01/28 01:14:24;;;;;;;26.70;10.80;;;;;;;1.97;100.00;98177.84;108280;1262;22540;-85
2024/01/28 01:17:42;;;;;;;19.40;10.70;;;;;;;1.96;100.00;98184.25;108347;1286;22708;-85
2024/01/28 01:20:53;;;;;;;19.80;12.50;;;;;;;1.91;100.00;98175.62;108307;1285;138435;-83
2024/01/28 01:24:20;;;;;;;24.60;10.50;;;;;;;1.86;100.00;98173.52;108322;1285;22542;-83
2024/01/28 01:27:16;;;;;;;;;;;;;;;;;;;;;
2024/01/28 01:30:33;;;;;;;20.00;10.30;;;;;;;1.77;100.00;98167.47;108260;1285;22561;-84
2024/01/28 01:34:01;;;;;;;18.60;10.20;;;;;;;1.75;100.00;98168.30;108202;1282;138617;-84
2024/01/28 01:37:28;;;;;;;27.60;11.90;;;;;;;1.73;100.00;98162.74;108717;1285;22649;-84
2024/01/28 01:40:32;;;;;;;23.00;12.50;;;;;;;1.75;100.00;98166.75;108023;1285;138791;-84
2024/01/28 01:44:00;;;;;;;23.50;11.70;;;;;;;1.77;100.00;98169.89;104289;1281;5403494;-84
2024/01/28 01:47:28;;;;;;;21.80;10.50;;;;;;;1.74;100.00;98165.58;108314;1285;22694;-85
2024/01/28 01:50:55;;;;;;;18.60;11.10;;;;;;;1.77;100.00;98169.73;108274;1278;137512;-84
2024/01/28 01:54:06;;;;;;;;;;;;;;;;;;;;;
2024/01/28 01:57:04;;;;;;;;;;;;;;;;;;;;;
2024/01/28 02:00:14;;;;;;;20.10;11.10;;;;;;;1.79;100.00;98171.30;108282;1278;22574;-85
2024/01/28 02:03:45;;;;;;;22.30;11.70;;;;;;;1.83;100.00;98171.83;108205;1285;138053;-84
2024/01/28 02:07:07;;;;;;;22.30;12.50;;;;;;;1.84;100.00;98171.55;108241;1285;22727;-84
2024/01/28 02:10:28;;;;;;;22.60;10.50;;;;;;;1.84;100.00;98172.77;108166;1285;138540;-84
2024/01/28 02:13:55;;;;;;;24.90;11.40;;;;;;;1.88;100.00;98176.84;108363;1285;22610;-85
2024/01/28 02:17:22;;;;;;;22.10;10.80;;;;;;;1.86;100.00;98176.23;108254;1280;23044;-84
2024/01/28 02:20:25;;;;;;;14.80;9.00;;;;;;;1.85;100.00;98176.47;108214;1285;23309;-84
2024/01/28 02:23:56;;;;;;;15.20;9.40;;;;;;;1.84;100.00;98170.70;108259;1285;22564;-84
2024/01/28 02:27:09;;;;;;;15.50;9.50;;;;;;;1.84;100.00;98170.56;107995;1286;138331;-84
2024/01/28 02:30:23;;;;;;;17.30;10.10;;;;;;;1.85;100.00;98173.43;108317;1285;23179;-84
2024/01/28 02:33:36;;;;;;;23.50;10.30;;;;;;;1.85;100.00;98170.00;108211;1285;138486;-85
2024/01/28 02:36:45;;;;;;;16.60;10.30;;;;;;;1.87;100.00;98165.09;108394;1285;22590;-85
2024/01/28 02:40:00;;;;;;;21.50;10.90;;;;;;;1.90;100.00;98170.06;108199;1283;138380;-85
2024/01/28 02:43:16;;;;;;;;;;;;;;;;;;;;;
2024/01/28 02:46:22;;;;;;;;;;;;;;;;;;;;;
2024/01/28 02:49:42;;;;;;;17.70;10.30;;;;;;;1.88;100.00;98178.56;108317;1277;24996;-84
2024/01/28 02:53:09;;;;;;;22.30;11.00;;;;;;;1.87;100.00;98177.55;108211;1285;138257;-84
2024/01/28 02:56:26;;;;;;;21.80;10.30;;;;;;;1.87;100.00;98182.21;108854;1285;24985;-85
2024/01/28 02:59:43;;;;;;;16.80;11.70;;;;;;;1.85;100.00;98184.02;108309;1285;22578;-84
2024/01/28 03:03:04;;;;;;;16.90;8.80;;;;;;;1.85;100.00;98184.19;108186;1281;138487;-84
2024/01/28 03:06:31;;;;;;;15.60;7.60;;;;;;;1.85;100.00;98185.05;108264;1285;25445;-84
2024/01/28 03:09:57;;;;;;;18.70;9.90;;;;;;;1.84;100.00;98190.21;108195;1285;138246;-85
2024/01/28 03:13:25;;;;;;;18.20;8.40;;;;;;;1.83;100.00;98197.11;108409;1283;22534;-85
2024/01/28 03:17:02;;;;;;;;;;;;;;;;;;;;;
2024/01/28 03:20:25;;;;;;;18.50;8.40;;;;;;;1.80;100.00;98195.38;108249;1285;23468;-84
2024/01/28 03:23:37;;;;;;;17.40;7.80;;;;;;;1.83;100.00;98205.69;108248;1285;24266;-85
2024/01/28 03:27:04;;;;;;;14.20;8.30;;;;;;;1.83;100.00;98208.73;108197;1285;138313;-84
2024/01/28 03:30:30;;;;;;;16.30;9.50;;;;;;;1.83;100.00;98212.14;108274;1283;22824;-85
2024/01/28 03:34:03;;;;;;;16.50;8.20;;;;;;;1.84;100.00;98218.94;108282;1285;138512;-85
2024/01/28 03:37:10;;;;;;;;;;;;;;;1.83;100.00;98216.25;108136;1283;25575;-84
2024/01/28 03:40:38;;;;;;;12.30;7.30;;;;;;;1.81;100.00;98221.48;108295;1285;124537;-85
2024/01/28 03:43:55;;;;;;;16.30;7.80;;;;;;;1.80;100.00;98228.83;108261;1285;22573;-85
2024/01/28 03:47:22;;;;;;;15.70;8.20;;;;;;;1.83;100.00;98229.41;108117;1289;22876;-84
2024/01/28 03:50:19;;;;;;;19.50;9.30;;;;;;;1.83;100.00;98226.84;108195;1289;25546;-86
2024/01/28 03:53:15;;;;;;;12.60;7.50;;;;;;;1.81;100.00;98228.80;108125;1289;22738;-85
2024/01/28 03:56:13;;;;;;;16.30;8.30;;;;;;;1.85;100.00;98230.13;108123;1267;22563;-85
2024/01/28 03:59:17;;;;;;;;;;;;;;;;;;;;;
2024/01/28 04:02:22;;;;;;;15.70;7.90;;;;;;;1.88;100.00;98226.90;108107;1285;22551;-85
2024/01/28 04:05:48;;;;;;;;;;;;;;;;;;;;;
2024/01/28 04:08:37;;;;;;;;;;;;;;;;;;;;;
2024/01/28 04:11:58;;;;;;;19.70;8.20;;;;;;;1.89;100.00;98235.90;108202;1283;22576;-85
2024/01/28 04:15:25;;;;;;;16.60;7.90;;;;;;;1.89;100.00;98238.96;108664;1282;137788;-85
2024/01/28 04:18:42;;;;;;;15.20;7.40;;;;;;;1.92;100.00;98240.33;108309;1285;22522;-84
2024/01/28 04:21:48;;;;;;;16.70;7.60;;;;;;;1.96;100.00;98244.92;108219;1285;138163;-85
2024/01/28 04:25:00;;;;;;;12.10;7.40;;;;;;;1.94;100.00;98240.58;108414;1279;22565;-84
2024/01/28 04:27:59;;;;;;;12.50;6.90;;;;;;;1.94;100.00;98241.41;108211;1285;137098;-85
2024/01/28 04:31:16;;;;;;;12.40;7.30;;;;;;;1.96;100.00;98244.59;108332;1285;23063;-85
2024/01/28 04:34:40;;;;;;;11.80;7.00;;;;;;;1.98;100.00;98246.85;108207;1285;137295;-84
2024/01/28 04:37:29;;;;;;;;;;;;;;;;;;;;;
2024/01/28 04:40:40;;;;;;;14.70;7.30;;;;;;;2.02;100.00;98243.58;108227;1285;138195;-84
2024/01/28 04:43:46;;;;;;;15.10;7.90;;;;;;;1.99;100.00;98245.77;108295;1285;24122;-85
2024/01/28 04:46:43;;;;;;;15.20;8.30;;;;;;;2.01;100.00;98251.30;108309;1285;138288;-84
2024/01/28 04:50:12;;;;;;;15.50;8.40;;;;;;;2.01;100.00;98250.61;108157;1285;22975;-84
2024/01/28 04:53:23;;;;;;;13.90;7.80;;;;;;;2.04;100.00;98255.73;108280;1285;138336;-85
2024/01/28 04:57:01;;;;;;;;;;;;;;;;;;;;;
2024/01/28 05:00:14;;;;;;;14.80;8.20;;;;;;;2.06;100.00;98248.65;108355;1285;23909;-84
2024/01/28 05:03:51;;;;;;;;;;;;;;;;;;;;;
2024/01/28 05:07:22;;;;;;;12.10;7.40;;;;;;;2.00;100.00;98256.19;108171;1285;25162;-84
2024/01/28 05:10:31;;;;;;;;;;;;;;;;;;;;;
2024/01/28 05:13:38;;;;;;;14.90;7.40;;;;;;;2.01;100.00;98267.58;108325;1285;25382;-84
2024/01/28 05:16:47;;;;;;;;;;;;;;;;;;;;;
2024/01/28 05:20:00;;;;;;;11.80;8.00;;;;;;;2.00;100.00;98276.63;108335;1285;22547;-85
2024/01/28 05:22:43;;;;;;;;;;;;;;;1.99;100.00;98288.88;108271;1285;138578;-85
2024/01/28 05:25:23;;;;;;;;;;;;;;;1.98;100.00;98291.81;108427;1285;25543;-84
2024/01/28 05:28:37;;;;;;;13.20;7.70;;;;;;;1.99;100.00;98292.59;108192;1285;124493;-84
2024/01/28 05:31:42;;;;;;;13.70;7.50;;;;;;;1.99;100.00;98297.25;108312;1285;22530;-85
2024/01/28 05:35:10;;;;;;;13.50;7.70;;;;;;;2.01;100.00;98301.02;108623;1283;137222;-85
2024/01/28 05:38:29;;;;;;;;;;;;;;;;;;;;;
2024/01/28 05:42:09;;;;;;;;;;;;;;;;;;;;;
2024/01/28 05:45:15;;;;;;;12.90;7.80;;;;;;;2.03;100.00;98313.56;108233;1285;138675;-85
2024/01/28 05:48:32;;;;;;;13.60;8.00;;;;;;;2.03;100.00;98316.48;108324;1285;23793;-85
2024/01/28 05:51:39;;;;;;;13.00;7.00;;;;;;;2.04;100.00;98319.66;108258;1285;138789;-86
2024/01/28 05:54:57;;;;;;;15.00;8.00;;;;;;;2.03;100.00;98318.85;108318;1285;22596;-86
2024/01/28 05:58:24;;;;;;;19.40;8.80;;;;;;;2.05;100.00;98316.73;108176;1285;138291;-84
2024/01/28 06:01:51;;;;;;;12.40;7.80;;;;;;;2.07;100.00;98314.91;108290;1281;22527;-86
2024/01/28 06:05:04;;;;;;;13.80;8.20;;;;;;;2.06;100.00;98316.31;108217;1285;138119;-87
2024/01/28 06:08:27;;;;;;;11.80;8.10;;;;;;;2.08;100.00;98311.45;108400;1281;25249;-87
2024/01/28 06:11:56;;;;;;;16.40;9.20;;;;;;;2.09;100.00;98316.01;108316;1285;138479;-87
2024/01/28 06:15:36;;;;;;;14.20;8.80;;;;;;;2.09;100.00;98318.36;108225;1286;22533;-86
2024/01/28 06:18:57;;;;;;;13.80;8.20;;;;;;;2.06;100.00;98319.26;108272;1285;22546;-86
2024/01/28 06:22:24;;;;;;;13.50;10.00;;;;;;;2.02;100.00;98324.05;108324;1264;138121;-86
2024/01/28 06:25:51;;;;;;;10.90;7.50;;;;;;;2.01;100.00;98327.38;108409;1285;22531;-85
2024/01/28 06:29:08;;;;;;;16.30;8.00;;;;;;;2.00;100.00;98330.20;108171;1285;138366;-85
2024/01/28 06:32:28;;;;;;;;;;;;;;;;;;;;;
2024/01/28 06:35:49;;;;;;;12.80;7.50;;;;;;;2.04;100.00;98335.27;108087;1285;138694;-85
2024/01/28 06:39:10;;;;;;;15.20;9.20;;;;;;;2.05;100.00;98337.08;108419;1285;22551;-85
2024/01/28 06:42:29;;;;;;;15.00;7.70;;;;;;;2.05;100.00;98336.73;108410;1278;24059;-85
2024/01/28 06:45:46;;;;;;;;;;;;;;;;;;;;;
2024/01/28 06:49:11;;;;;;;;;;;;;;;;;;;;;
2024/01/28 06:52:43;;;;;;;14.00;8.40;;;;;;;2.06;100.00;98348.98;108228;1285;138113;-85
2024/01/28 06:56:03;;;;;;;12.80;8.30;;;;;;;2.02;100.00;98355.51;108418;1285;22560;-85
2024/01/28 06:59:15;;;;;;;14.00;9.30;;;;;;;2.02;100.00;98357.55;108192;1286;138594;-85
2024/01/28 07:02:35;;;;;;;;;;;;;;;;;;;;;
2024/01/28 07:06:37;;;;;;;15.60;8.80;;;;;;;2.07;100.00;98354.06;108214;1279;22635;-85
2024/01/28 07:09:40;;;;;;;15.20;8.60;;;;;;;2.11;100.00;98350.58;108008;1286;22575;-85
2024/01/28 07:13:05;;;;;;;;;;;;;;;;;;;;;
2024/01/28 07:16:27;;;;;;;19.20;10.20;;;;;;;2.15;100.00;98351.11;108253;1285;139337;-85
2024/01/28 07:19:40;;;;;;;14.90;9.00;;;;;;;2.17;100.00;98354.95;108416;1285;26292;-85
2024/01/28 07:22:48;;;;;;;15.00;8.70;;;;;;;2.17;100.00;98362.94;108294;1285;138109;-86
2024/01/28 07:26:09;;;;;;;14.80;9.40;;;;;;;2.15;100.00;98371.44;108365;1284;22563;-86
2024/01/28 07:29:29;;;;;;;13.70;8.30;;;;;;;2.12;100.00;98373.33;108312;1283;138248;-85
2024/01/28 07:32:48;;;;;;;19.30;9.20;;;;;;;2.10;100.00;98374.92;108345;1284;22577;-85
2024/01/28 07:36:17;;;;;;;18.00;9.60;;;;;;;2.09;100.00;98365.73;108277;1286;22583;-85
2024/01/28 07:39:35;;;;;;;16.70;10.00;;;;;;;2.08;100.00;98363.72;108381;1285;22606;-85
2024/01/28 07:43:02;;;;;;;23.50;11.80;;;;;;;2.12;100.00;98363.23;108345;1285;22991;-85
2024/01/28 07:46:30;;;;;;;15.50;9.50;;;;;;;2.13;100.00;98368.64;108120;1285;138421;-85
2024/01/28 07:49:50;;;;;;;16.10;10.30;;;;;;;2.10;100.00;98368.41;108307;1285;22648;-85
2024/01/28 07:53:00;;;;;;;46.80;25.40;;;;;;;2.10;100.00;98375.73;108295;1285;138322;-85
2024/01/28 07:56:21;;;;;;;;;;;;;;;;;;;;;
2024/01/28 07:59:43;;;;;;;19.10;11.30;;;;;;;2.12;100.00;98377.77;108204;1285;138684;-85
2024/01/28 08:03:09;;;;;;;14.50;9.60;;;;;;;2.16;100.00;98384.73;108339;1284;22541;-85
2024/01/28 08:06:27;;;;;;;19.90;9.90;;;;;;;2.18;100.00;98381.02;108435;1284;22580;-85
2024/01/28 08:09:53;;;;;;;15.20;9.00;;;;;;;2.19;100.00;98379.74;108339;1282;22578;-85
2024/01/28 08:13:22;;;;;;;15.00;8.50;;;;;;;2.16;100.00;98379.93;108604;1285;23892;-85
2024/01/28 08:16:48;;;;;;;12.40;8.50;;;;;;;2.15;100.00;98382.23;108271;1284;138708;-85
2024/01/28 08:20:16;;;;;;;12.90;7.20;;;;;;;2.18;100.00;98391.30;108290;1283;22570;-86
2024/01/28 08:23:34;;;;;;;12.40;7.80;;;;;;;2.18;100.00;98388.70;108333;1283;137115;-85
2024/01/28 08:27:01;;;;;;;14.80;7.50;;;;;;;2.20;100.00;98388.60;108365;1282;23172;-85
2024/01/28 08:30:23;;;;;;;;;;;;;;;;;;;;;
2024/01/28 08:33:45;;;;;;;13.60;7.70;;;;;;;2.23;100.00;98391.17;108345;1285;22562;-85
2024/01/28 08:37:12;;;;;;;10.00;6.80;;;;;;;2.25;100.00;98392.60;108388;1285;25540;-86
2024/01/28 08:40:32;;;;;;;14.10;8.70;;;;;;;2.29;100.00;98394.63;108151;1285;138358;-85
2024/01/28 08:44:00;;;;;;;12.00;8.10;;;;;;;2.32;100.00;98397.88;108265;1285;22539;-85
2024/01/28 08:47:14;;;;;;;;;;;;;;;;;;;;;
2024/01/28 08:50:28;;;;;;;13.60;7.00;;;;;;;2.40;100.00;98406.85;108399;1278;22538;-85
2024/01/28 08:53:48;;;;;;;14.40;7.80;;;;;;;2.43;100.00;98405.30;108225;1285;138159;-84
2024/01/28 08:57:06;;;;;;;13.90;8.10;;;;;;;2.46;100.00;98417.50;108157;1285;22593;-85
2024/01/28 09:00:27;;;;;;;51.30;23.90;;;;;;;2.49;100.00;98414.59;108225;1285;138597;-85
2024/01/28 09:03:54;;;;;;;63.80;30.00;;;;;;;2.54;100.00;98407.46;108446;1283;22565;-85
2024/01/28 09:07:31;;;;;;;;;;;;;;;;;;;;;
2024/01/28 09:11:03;;;;;;;;;;;;;;;;;;;;;
2024/01/28 09:14:07;;;;;;;;;;;;;;;2.67;100.00;98415.48;108432;1285;25428;-85
2024/01/28 09:17:37;;;;;;;16.80;8.20;;;;;;;2.64;100.00;98422.50;108279;1285;125115;-86
2024/01/28 09:21:04;;;;;;;58.00;20.10;;;;;;;2.63;100.00;98423.09;108313;1283;22586;-85
2024/01/28 09:24:22;;;;;;;30.50;15.80;;;;;;;2.60;100.00;98431.08;108186;1280;139170;-85
2024/01/28 09:27:52;;;;;;;24.80;14.20;;;;;;;2.59;100.00;98427.92;108353;1285;25412;-85
2024/01/28 09:31:09;;;;;;;25.00;13.90;;;;;;;2.58;100.00;98430.15;108303;1280;23830;-85
2024/01/28 09:34:38;;;;;;;16.70;12.40;;;;;;;2.53;100.00;98431.13;108427;1283;24218;-85
2024/01/28 09:38:05;;;;;;;88.90;27.80;;;;;;;2.53;100.00;98430.46;108387;1278;22540;-85
2024/01/28 09:41:32;;;;;;;42.10;20.30;;;;;;;2.55;100.00;98436.48;108189;1280;138876;-84
2024/01/28 09:44:51;;;;;;;;;;;;;;;;;;;;;
2024/01/28 09:48:28;;;;;;;21.60;13.10;;;;;;;2.58;100.00;98435.48;108165;1285;138949;-85
2024/01/28 09:51:54;;;;;;;18.20;13.20;;;;;;;2.58;100.00;98438.37;108235;1283;22650;-85
2024/01/28 09:55:21;;;;;;;31.10;19.40;;;;;;;2.60;100.00;98438.99;108359;1285;22579;-84
2024/01/28 09:58:53;;;;;;;24.40;16.60;;;;;;;2.61;100.00;98434.67;108209;1268;138446;-85
2024/01/28 10:02:22;;;;;;;33.10;19.70;;;;;;;2.59;100.00;98437.33;108288;1285;22563;-85
2024/01/28 10:05:49;;;;;;;25.60;15.50;;;;;;;2.59;100.00;98435.59;108236;1285;138790;-85
2024/01/28 10:09:15;;;;;;;;;;;;;;;;;;;;;
2024/01/28 10:12:43;;;;;;;31.50;20.60;;;;;;;2.62;100.00;98428.80;108286;1285;138291;-85
2024/01/28 10:16:02;;;;;;;44.60;26.90;;;;;;;2.63;100.00;98428.02;108292;1285;22540;-85
2024/01/28 10:19:29;;;;;;;40.10;24.50;;;;;;;2.66;100.00;98427.69;108307;1285;22576;-86
2024/01/28 10:22:57;;;;;;;32.00;20.80;;;;;;;2.71;100.00;98423.30;108279;1285;138752;-85
2024/01/28 10:26:24;;;;;;;26.00;17.50;;;;;;;2.73;100.00;98426.49;108288;1285;22587;-85
2024/01/28 10:29:51;;;;;;;30.00;15.80;;;;;;;2.71;100.00;98425.52;108263;1285;138313;-85
2024/01/28 10:33:11;;;;;;;17.90;11.70;;;;;;;2.73;100.00;98419.45;108276;1286;22585;-85
2024/01/28 10:36:21;;;;;;;15.20;9.20;;;;;;;2.73;100.00;98419.64;108273;1280;138424;-85
2024/01/28 10:39:35;;;;;;;;;;;;;;;;;;;;;
2024/01/28 10:42:46;;;;;;;16.60;10.90;;;;;;;2.73;100.00;98415.15;108297;1285;24232;-85
2024/01/28 10:46:16;;;;;;;19.00;10.90;;;;;;;2.72;100.00;98413.50;108373;1285;22745;-85
2024/01/28 10:49:41;;;;;;;14.50;10.50;;;;;;;2.67;100.00;98417.72;108252;1280;22646;-85
2024/01/28 10:53:08;;;;;;;15.50;10.30;;;;;;;2.68;100.00;98418.71;108324;1283;138000;-85
2024/01/28 10:56:29;;;;;;;19.00;10.80;;;;;;;2.71;100.00;98419.73;108155;1281;22527;-85
2024/01/28 11:00:06;;;;;;;16.40;11.10;;;;;;;2.75;100.00;98424.10;108113;1282;138726;-85
2024/01/28 11:03:36;;;;;;;12.80;8.90;;;;;;;2.79;100.00;98421.54;108301;1280;22618;-85
2024/01/28 11:06:58;;;;;;;13.60;8.70;;;;;;;2.82;100.00;98416.03;108034;1285;138317;-85
2024/01/28 11:10:25;;;;;;;53.40;24.30;;;;;;;2.86;100.00;98413.27;108374;1285;23762;-85
2024/01/28 11:13:52;;;;;;;16.60;10.40;;;;;;;2.86;100.00;98413.45;108301;1286;22560;-85
2024/01/28 11:17:05;;;;;;;;;;;;;;;;;;;;;
2024/01/28 11:20:38;;;;;;;;;;;;;;;;;;;;;
2024/01/28 11:24:06;;;;;;;9.90;6.40;;;;;;;2.92;100.00;98416.85;108052;1280;138133;-85
2024/01/28 11:27:27;;;;;;;11.00;7.00;;;;;;;2.92;100.00;98420.78;108259;1285;25291;-85
2024/01/28 11:31:03;;;;;;;12.60;7.50;;;;;;;2.91;100.00;98424.95;108163;1282;138123;-85
2024/01/28 11:34:40;;;;;;;;;;;;;;;;;;;;;
2024/01/28 11:38:03;;;;;;;22.80;16.00;;;;;;;2.88;100.00;98413.13;108270;1282;25447;-84
2024/01/28 11:41:19;;;;;;;31.20;16.40;;;;;;;2.90;100.00;98413.70;108281;1285;22558;-85
2024/01/28 11:44:47;;;;;;;107.50;45.30;;;;;;;2.91;100.00;98421.20;108386;1280;24261;-85
2024/01/28 11:48:14;;;;;;;28.60;15.90;;;;;;;2.97;100.00;98420.21;108234;1285;138519;-85
2024/01/28 11:51:33;;;;;;;;;;;;;;;;;;;;;
2024/01/28 11:55:04;;;;;;;73.60;24.70;;;;;;;3.00;100.00;98422.55;108122;1285;139041;-85
2024/01/28 11:58:31;;;;;;;50.80;20.00;;;;;;;3.01;100.00;98424.39;108228;1280;22592;-85
2024/01/28 12:02:04;;;;;;;40.50;18.70;;;;;;;3.04;100.00;98419.44;108261;1285;22554;-85
2024/01/28 12:05:32;;;;;;;26.70;16.50;;;;;;;3.07;100.00;98413.45;108139;1280;22572;-85
2024/01/28 12:09:08;;;;;;;27.60;16.30;;;;;;;3.12;100.00;98415.40;108358;1280;22792;-86
2024/01/28 12:12:34;;;;;;;;;;;;;;;;;;;;;
2024/01/28 12:16:03;;;;;;;22.00;13.00;;;;;;;3.19;100.00;98412.63;108397;1285;22524;-85
2024/01/28 12:19:36;;;;;;;16.60;11.50;;;;;;;3.19;100.00;98412.59;108304;1285;138150;-85
2024/01/28 12:23:03;;;;;;;19.10;12.20;;;;;;;3.23;100.00;98408.81;108092;1277;23350;-85
2024/01/28 12:26:32;;;;;;;20.70;11.80;;;;;;;3.25;100.00;98403.20;108253;1285;22556;-85
2024/01/28 12:29:58;;;;;;;24.20;13.90;;;;;;;3.24;100.00;98402.05;108142;1285;138577;-85
2024/01/28 12:33:27;;;;;;;21.40;11.50;;;;;;;3.25;100.00;98402.69;108251;1285;22600;-85
2024/01/28 12:36:54;;;;;;;16.90;10.40;;;;;;;3.25;100.00;98410.73;108272;1285;138361;-85
2024/01/28 12:40:24;;;;;;;16.80;10.90;;;;;;;3.26;100.00;98409.17;108196;1285;22603;-85
2024/01/28 12:43:44;;;;;;;14.90;9.90;;;;;;;3.26;100.00;98409.67;108385;1283;22625;-84
2024/01/28 12:47:02;;;;;;;16.20;10.40;;;;;;;3.25;100.00;98404.42;108165;1280;22574;-85
2024/01/28 12:50:22;;;;;;;;;;;;;;;;;;;;;
2024/01/28 12:53:51;;;;;;;19.80;12.40;;;;;;;3.24;100.00;98403.27;108295;1285;138485;-85
2024/01/28 12:57:28;;;;;;;;;;;;;;;;;;;;;
2024/01/28 13:00:52;;;;;;;22.30;15.20;;;;;;;3.25;100.00;98404.73;108169;1285;138309;-85
2024/01/28 13:04:15;;;;;;;;;;;;;;;;;;;;;
2024/01/28 13:07:36;;;;;;;26.00;14.40;;;;;;;3.30;100.00;98401.02;108291;1285;138110;-86
2024/01/28 13:11:04;;;;;;;30.70;18.40;;;;;;;3.29;100.00;98398.69;108405;1285;24157;-85
2024/01/28 13:14:31;;;;;;;45.80;27.50;;;;;;;3.30;100.00;98395.88;108292;1281;23561;-85
2024/01/28 13:17:58;;;;;;;37.00;19.90;;;;;;;3.33;100.00;98398.50;108161;1285;139012;-87
2024/01/28 13:21:26;;;;;;;25.20;15.70;;;;;;;3.31;100.00;98395.16;108350;1281;27115;-87
2024/01/28 13:24:53;;;;;;;27.50;15.80;;;;;;;3.28;100.00;98396.17;108255;1285;138309;-88
2024/01/28 13:28:22;;;;;;;40.50;20.80;;;;;;;3.27;100.00;98396.60;108281;1280;22583;-87
2024/01/28 13:31:56;;;;;;;32.50;16.40;;;;;;;3.31;100.00;98402.86;108511;1285;22539;-87
2024/01/28 13:35:23;;;;;;;26.40;16.60;;;;;;;3.36;100.00;98407.70;108244;1278;22562;-87
2024/01/28 13:38:50;;;;;;;24.20;14.80;;;;;;;3.39;100.00;98402.95;108375;1285;23105;-87
2024/01/28 13:42:18;;;;;;;22.60;13.70;;;;;;;3.41;100.00;98404.00;108221;1285;138504;-85
2024/01/28 13:45:46;;;;;;;24.40;13.70;;;;;;;3.43;100.00;98396.52;104010;1285;5847209;-87
2024/01/28 13:49:13;;;;;;;21.20;12.30;;;;;;;3.43;100.00;98403.73;108249;1285;138616;-87
2024/01/28 13:52:41;;;;;;;17.80;10.70;;;;;;;3.45;100.00;98405.14;108368;1285;22563;-87
2024/01/28 13:56:11;;;;;;;16.00;10.20;;;;;;;3.43;100.00;98403.09;108335;1283;27010;-87
2024/01/28 13:59:38;;;;;;;20.40;11.00;;;;;;;3.41;100.00;98407.77;108349;1280;138479;-87
2024/01/28 14:03:06;;;;;;;19.20;12.30;;;;;;;3.41;100.00;98405.55;108364;1285;25353;-86
2024/01/28 14:06:33;;;;;;;31.00;13.20;;;;;;;3.41;100.00;98407.77;108298;1285;22543;-87
2024/01/28 14:10:00;;;;;;;25.80;14.00;;;;;;;3.36;100.00;98412.15;108369;1280;22533;-87
2024/01/28 14:13:28;;;;;;;27.50;13.60;;;;;;;3.34;100.00;98411.27;108275;1285;138529;-87
2024/01/28 14:16:58;;;;;;;19.90;11.30;;;;;;;3.35;100.00;98417.02;108412;1278;22558;-87
2024/01/28 14:20:28;;;;;;;21.30;9.80;;;;;;;3.32;100.00;98411.54;108126;1285;22616;-86
2024/01/28 14:23:55;;;;;;;16.20;10.50;;;;;;;3.32;100.00;98411.20;108145;1280;22573;-87
2024/01/28 14:27:25;;;;;;;20.50;10.10;;;;;;;3.34;100.00;98416.43;108287;1279;23941;-87
2024/01/28 14:30:52;;;;;;;16.60;9.10;;;;;;;3.34;100.00;98413.66;108133;1286;138689;-87
2024/01/28 14:34:21;;;;;;;16.50;10.60;;;;;;;3.36;100.00;98408.10;108386;1282;23274;-87
2024/01/28 14:37:49;;;;;;;16.00;9.60;;;;;;;3.37;100.00;98405.62;108367;1285;138930;-87
2024/01/28 14:41:12;;;;;;;17.20;8.50;;;;;;;3.36;100.00;98407.21;108411;1285;23431;-87
2024/01/28 14:44:39;;;;;;;15.30;9.30;;;;;;;3.35;100.00;98406.91;108357;1285;22540;-87
2024/01/28 14:48:07;;;;;;;16.30;10.50;;;;;;;3.34;100.00;98411.77;108376;1285;22555;-87
2024/01/28 14:51:39;;;;;;;16.80;9.60;;;;;;;3.32;100.00;98412.39;108402;1283;26020;-87
2024/01/28 14:55:03;;;;;;;14.30;8.10;;;;;;;3.29;100.00;98415.66;108198;1283;138554;-87
2024/01/28 14:58:32;;;;;;;14.80;7.70;;;;;;;3.25;100.00;98414.33;108382;1280;22549;-87
2024/01/28 15:02:00;;;;;;;11.00;7.50;;;;;;;3.23;100.00;98414.61;108270;1285;138544;-87
2024/01/28 15:05:29;;;;;;;14.10;7.50;;;;;;;3.18;100.00;98411.33;108367;1285;27200;-88
2024/01/28 15:08:48;;;;;;;;;;;;;;;;;;;;;
2024/01/28 15:12:16;;;;;;;12.30;7.20;;;;;;;3.02;100.00;98416.17;108066;1285;139623;-86
2024/01/28 15:15:43;;;;;;;12.60;6.40;;;;;;;3.00;100.00;98417.25;108301;1285;22810;-86
2024/01/28 15:19:04;;;;;;;8.70;6.30;;;;;;;3.03;100.00;98414.92;108267;1267;137064;-86
2024/01/28 15:22:31;;;;;;;8.70;6.00;;;;;;;2.98;100.00;98411.92;108339;1285;23475;-86
2024/01/28 15:26:00;;;;;;;6.90;5.10;;;;;;;2.94;100.00;98415.91;108107;1285;138817;-86
2024/01/28 15:29:25;;;;;;;;;;;;;;;;;;;;;
2024/01/28 15:32:53;;;;;;;8.30;5.30;;;;;;;2.87;100.00;98419.18;108367;1285;22684;-86
2024/01/28 15:36:20;;;;;;;7.70;5.80;;;;;;;2.79;100.00;98419.63;108142;1285;139616;-85
2024/01/28 15:39:48;;;;;;;11.50;6.40;;;;;;;2.70;100.00;98419.27;108269;1277;22685;-86
2024/01/28 15:43:16;;;;;;;10.10;7.30;;;;;;;2.69;100.00;98415.23;108155;1285;138172;-86
2024/01/28 15:46:46;;;;;;;8.30;6.10;;;;;;;2.74;100.00;98404.51;108372;1285;25247;-86
2024/01/28 15:49:56;;;;;;;8.30;5.30;;;;;;;2.72;100.00;98400.13;108047;1285;138300;-85
2024/01/28 15:53:24;;;;;;;8.80;6.10;;;;;;;2.65;100.00;98408.26;108332;1285;25986;-86
2024/01/28 15:56:38;;;;;;;8.60;7.00;;;;;;;2.56;100.00;98410.95;108218;1278;23400;-85
2024/01/28 15:59:37;;;;;;;;;;;;;;;;;;;;;
2024/01/28 16:02:49;;;;;;;;;;;;;;;;;;;;;
2024/01/28 16:06:00;;;;;;;;;;;;;;;;;;;;;
2024/01/28 16:09:28;;;;;;;9.00;6.70;;;;;;;2.50;100.00;98413.88;108374;1285;22667;-86
2024/01/28 16:12:41;;;;;;;11.80;7.20;;;;;;;2.47;100.00;98415.04;108164;1280;138192;-85
2024/01/28 16:16:04;;;;;;;11.90;8.30;;;;;;;2.45;100.00;98415.02;108374;1277;22680;-84
2024/01/28 16:19:30;;;;;;;;;;;;;;;;;;;;;
2024/01/28 16:22:50;;;;;;;9.80;7.30;;;;;;;2.36;100.00;98420.41;108399;1277;24353;-84
2024/01/28 16:26:17;;;;;;;10.00;8.00;;;;;;;2.32;100.00;98420.61;108466;1285;138081;-84
2024/01/28 16:29:45;;;;;;;13.10;7.80;;;;;;;2.33;100.00;98428.92;108250;1285;22594;-84
2024/01/28 16:33:11;;;;;;;11.40;8.00;;;;;;;2.30;100.00;98424.02;108235;1285;22631;-84
2024/01/28 16:36:37;;;;;;;13.30;8.90;;;;;;;2.30;100.00;98422.63;108288;1285;138579;-84
2024/01/28 16:39:47;;;;;;;;;;;;;;;;;;;;;
2024/01/28 16:43:07;;;;;;;14.00;8.50;;;;;;;2.32;100.00;98412.41;108276;1278;138213;-84
2024/01/28 16:46:34;;;;;;;12.90;7.60;;;;;;;2.35;100.00;98412.42;108301;1285;22558;-85